Darbydale, Ohio
Current Conditions -  °F | °C
As of 9:50 AM on Monday 24 Nov 2014 (Local Time) from KTZR Reporting Station
Broken Clouds Broken Clouds  
Wind Chill: 61°   Ceiling: 4500
Heat Index: 61°   Visibility: 10mi
Dew Point: 52°   Wind: 26mph
Humidity: 72%   Direction: 200°SSW
Pressure: 29.32"   Gusts: 39mph
Location:  39.8683°N, 83.1183°W
Report Text: KTZR 241450Z 20023G34KT 10SM SCT030 BKN045 16/11 A2932
Loading
Personal Weather Stations






























Interactive Weather Map New forecast layout! Learn more

10-Day Weather Forecast

Advertisements
Track Severe Weather on mobile